Cardiff-Wales, United Kingdom

5:12 PM BST on August 31, 2016 (GMT +0100)
Cardiff | | Change Station

Elev 220 ft 51.40 °N, 3.34 °W | Updated 22 minutes ago

Scattered Clouds
Scattered Clouds
66 °F
Feels Like 66 °F
N
17
Wind Variable Wind from West

Today
High -- | Low -- °F
--% Chance of Precip.
Yesterday
High -- | Low -- °F
Precip. -- in
Pressure 30.15 in
Visibility 6.2 miles
Clouds Scattered Clouds 1700 ft
Dew Point 57 °F
Humidity 73%
Rainfall 0.00 in
Snow Depth Not available.
6:25 AM 8:00 PM
Waning Crescent, 1% visible
METAR EGFF 311550Z AUTO 27015KT 9999 SCT017 19/14 Q1021
Pressure 30.15 in
Visibility 6.2 miles
Clouds Scattered Clouds 1700 ft
Dew Point 57 °F
Humidity 73%
Rainfall 0.00 in
Snow Depth Not available.
6:25 AM 8:00 PM
Waning Crescent, 1% visible
METAR EGFF 311550Z AUTO 27015KT 9999 SCT017 19/14 Q1021

10-Day Weather Forecast

×

Almanac

Astronomy

Aug. 31, 2016 Rise Set
Actual Time
Civil Twilight
Nautical Twilight
Astronomical Twilight
Moon
Length of Visible Light
Length of Day
Tomorrow will be .
, % of the Moon is Illuminated

Today's Extremes

Country Highs Country Lows

Community

WunderPhotos

Upload Photos

1,936,105 photos uploaded!

WunderBlog® & News

Nearby

Air Quality

  Air Quality AQ Index Pollutant
Not available.

Snow Depth

Station Depth Elevation

Earthquake Activity

City Distance Mag. Time & Date
Minimum magnitude displayed is 2.5.

Coastal Water Temperatures

Place Temperature

Stations

Nearby Weather Stations

Station Location Temp. Windchill Dew Point Humidity Wind Precip. Elev Updated Type